Terminal Aerodrome Forecast
Issued by NWS

Home | Current Version | Previous Version | Text Only | Print | Product List | Glossary On
Versions: 1 2 3 4 5 6 7 8 9 10 11 12 13
000
FTUS45 KVEF 312320
TAFVGT
TAF
KVGT 312320Z 0100/0124 18010G18KT P6SM FEW120 FEW250
     FM010300 24009KT P6SM FEW250
     FM010700 VRB05KT P6SM FEW250
     FM011800 15010G17KT P6SM FEW250
     FM012300 20012G20KT P6SM FEW250=

USA.gov is the U.S. government's official web portal to all federal, state and local government web resources and services.